Time;durP1;ratioP1;P1;durP2;ratioP2;P2;SDS_P1;SDS_P2;PMS_P1;PMS_P2;Temp;Humidity;BMP_temperature;BMP_pressure;BME280_temperature;BME280_humidity;BME280_pressure;Samples;Min_cycle;Max_cycle;Signal;HPM_P1;HPM_P2
2022/05/21 00:00:26;;;;;;;;;7.00;5.50;;;;;19.60;51.67;101935.59;5073608;27;45324;-74
2022/05/21 00:02:53;;;;;;;;;4.25;4.25;;;;;19.44;51.85;101908.44;5082234;27;45297;-74
2022/05/21 00:05:21;;;;;;;;;5.00;4.25;;;;;19.42;51.76;101911.22;5068921;27;45285;-74
2022/05/21 00:07:46;;;;;;;;;4.50;4.50;;;;;19.60;52.22;101946.44;5069388;27;45440;-73
2022/05/21 00:10:14;;;;;;;;;6.00;5.25;;;;;19.35;52.00;101907.06;5078204;27;45361;-74
2022/05/21 00:12:41;;;;;;;;;3.50;3.50;;;;;19.33;51.96;101908.09;5088884;27;45545;-74
2022/05/21 00:15:07;;;;;;;;;4.00;4.00;;;;;19.54;52.19;101944.91;5067993;28;45378;-74
2022/05/21 00:17:33;;;;;;;;;5.00;5.00;;;;;19.37;52.31;101915.97;5068050;28;45219;-74
2022/05/21 00:20:00;;;;;;;;;4.75;4.25;;;;;19.32;51.99;101909.06;5065563;28;46132;-74
2022/05/21 00:22:26;;;;;;;;;5.25;4.25;;;;;19.36;51.95;101908.84;5067779;27;45299;-74
2022/05/21 00:24:51;;;;;;;;;5.75;5.75;;;;;19.29;51.90;101910.06;5062019;27;45497;-73
2022/05/21 00:27:17;;;;;;;;;4.00;4.00;;;;;19.47;51.99;101937.19;5065042;28;45488;-73
2022/05/21 00:29:42;;;;;;;;;5.00;5.00;;;;;19.41;51.99;101927.53;5059256;28;47241;-74
2022/05/21 00:32:07;;;;;;;;;4.00;4.00;;;;;19.32;52.20;101909.94;5067456;27;45719;-74
2022/05/21 00:34:34;;;;;;;;;5.75;5.00;;;;;19.27;52.25;101909.28;5077065;27;45377;-74
2022/05/21 00:37:01;;;;;;;;;7.00;4.25;;;;;19.30;52.01;101927.22;5071134;28;45425;-74
2022/05/21 00:39:26;;;;;;;;;5.00;5.00;;;;;19.24;52.26;101918.47;5080644;27;47985;-74
2022/05/21 00:41:52;;;;;;;;;3.00;2.75;;;;;19.23;52.32;101913.13;5084009;27;45709;-74
2022/05/21 00:44:17;;;;;;;;;3.00;3.00;;;;;19.36;52.27;101941.31;5072782;28;45484;-74
2022/05/21 00:46:44;;;;;;;;;5.75;3.50;;;;;19.42;52.41;101959.09;5071998;28;45216;-74
2022/05/21 00:49:23;;;;;;;;;4.25;3.75;;;;;19.42;52.13;101957.25;5060132;28;48369;-74
2022/05/21 00:52:07;;;;;;;;;4.00;2.00;;;;;19.42;52.24;101951.81;5074382;28;45390;-74
2022/05/21 00:54:40;;;;;;;;;6.00;5.00;;;;;19.40;52.13;101955.59;5061021;28;45450;-74
2022/05/21 00:57:14;;;;;;;;;5.00;5.00;;;;;19.35;52.50;101936.84;5071921;27;45589;-74
2022/05/21 00:59:48;;;;;;;;;7.25;4.50;;;;;19.34;52.51;101934.22;5076928;27;48285;-74
2022/05/21 01:02:19;;;;;;;;;3.00;3.00;;;;;19.21;52.42;101912.28;5061287;28;45452;-74
2022/05/21 01:04:45;;;;;;;;;9.25;4.50;;;;;19.33;52.35;101946.00;5063282;28;45371;-74
2022/05/21 01:07:12;;;;;;;;;5.25;4.25;;;;;19.14;52.63;101917.13;5088873;27;45938;-73
2022/05/21 01:09:39;;;;;;;;;4.00;4.00;;;;;19.24;52.32;101933.81;5079397;27;45605;-74
2022/05/21 01:12:06;;;;;;;;;5.00;3.50;;;;;19.10;52.62;101914.69;5091696;27;45366;-74
2022/05/21 01:14:32;;;;;;;;;4.50;4.50;;;;;19.26;52.26;101940.00;5065694;27;45425;-74
2022/05/21 01:17:00;;;;;;;;;5.00;5.00;;;;;19.12;52.64;101919.06;5069352;28;45688;-74
2022/05/21 01:19:25;;;;;;;;;6.25;5.50;;;;;19.14;52.81;101924.38;5060999;28;45380;-74
2022/05/21 01:21:51;;;;;;;;;4.00;4.00;;;;;19.25;52.69;101949.09;5069642;28;45424;-73
2022/05/21 01:24:17;;;;;;;;;5.75;4.75;;;;;19.18;52.79;101929.59;5064344;27;45389;-73
2022/05/21 01:26:43;;;;;;;;;4.25;4.25;;;;;19.07;52.98;101921.09;5065805;28;45236;-73
2022/05/21 01:29:22;;;;;;;;;3.00;3.00;;;;;19.15;52.85;101932.44;5059419;28;45885;-73
2022/05/21 01:31:50;;;;;;;;;3.25;2.25;;;;;19.13;52.79;101934.34;5060628;28;45377;-73
2022/05/21 01:34:16;;;;;;;;;6.00;4.75;;;;;19.10;52.42;101930.91;5060801;28;45255;-73
2022/05/21 01:36:42;;;;;;;;;5.00;3.00;;;;;19.02;53.00;101929.44;5062031;28;45238;-73
2022/05/21 01:39:07;;;;;;;;;5.75;4.50;;;;;19.15;52.80;101945.97;5080402;27;45475;-73
2022/05/21 01:41:33;;;;;;;;;4.00;2.00;;;;;19.16;52.63;101945.03;5068206;27;45363;-73
2022/05/21 01:46:42;;;;;;;;;3.00;3.00;;;;;19.14;52.76;101946.91;5060041;28;45438;-73
2022/05/21 01:49:07;;;;;;;;;4.50;3.25;;;;;19.04;53.06;101932.09;5075977;27;47238;-73
2022/05/21 01:51:33;;;;;;;;;2.75;2.75;;;;;18.99;52.71;101926.88;5060373;28;45508;-73
2022/05/21 01:53:58;;;;;;;;;5.50;3.50;;;;;19.09;52.78;101954.38;5058832;28;45659;-73
2022/05/21 01:56:23;;;;;;;;;3.75;2.75;;;;;18.90;52.83;101916.53;5058782;27;48170;-73
2022/05/21 01:58:49;;;;;;;;;5.00;3.00;;;;;18.96;53.08;101935.19;5071908;27;45347;-73
2022/05/21 02:01:15;;;;;;;;;5.75;2.75;;;;;18.80;52.91;101915.19;5059939;28;45343;-73
2022/05/21 02:03:40;;;;;;;;;4.00;3.25;;;;;18.68;53.13;101893.19;5060445;28;45222;-73
2022/05/21 02:06:06;;;;;;;;;3.50;2.75;;;;;18.81;53.24;101911.53;5067178;28;45784;-73
2022/05/21 02:08:32;;;;;;;;;3.00;3.00;;;;;18.95;53.05;101932.56;5073680;28;46084;-74
2022/05/21 02:10:57;;;;;;;;;4.25;3.50;;;;;18.71;53.32;101892.19;5086210;27;45405;-73
2022/05/21 02:13:26;;;;;;;;;3.00;3.00;;;;;18.72;53.09;101893.06;5068406;27;45581;-73
2022/05/21 02:15:52;;;;;;;;;2.75;2.50;;;;;18.91;53.67;101930.94;5070015;28;45276;-73
2022/05/21 02:18:18;;;;;;;;;4.50;3.75;;;;;18.67;53.20;101901.38;5078945;28;47193;-73
2022/05/21 02:20:46;;;;;;;;;3.25;2.75;;;;;18.64;53.24;101907.81;5079098;28;45297;-73
2022/05/21 02:23:11;;;;;;;;;3.75;3.50;;;;;18.86;53.32;101948.28;5078015;27;45362;-73
2022/05/21 02:25:36;;;;;;;;;6.25;4.50;;;;;18.63;53.19;101902.50;5070221;27;45511;-73
2022/05/21 02:28:02;;;;;;;;;5.00;2.00;;;;;18.62;53.43;101908.84;5077345;28;48012;-73
2022/05/21 02:30:28;;;;;;;;;4.00;3.00;;;;;18.64;53.21;101910.53;5079906;28;45404;-73
2022/05/21 02:32:53;;;;;;;;;3.50;3.00;;;;;18.70;53.44;101925.56;5080274;28;45353;-73
2022/05/21 02:35:18;;;;;;;;;0.50;0.50;;;;;18.76;53.43;101938.81;5071066;27;45251;-73
2022/05/21 02:40:28;;;;;;;;;4.00;2.25;;;;;18.48;53.69;101895.97;5078302;28;45382;-73
2022/05/21 02:42:55;;;;;;;;;3.00;3.00;;;;;18.48;53.82;101910.38;5080031;27;46689;-73
2022/05/21 02:45:25;;;;;;;;;3.25;3.00;;;;;18.69;53.43;101946.34;5077948;28;45470;-73
2022/05/21 02:47:51;;;;;;;;;2.50;2.50;;;;;18.57;53.64;101921.69;5079833;28;46574;-74
2022/05/21 02:50:21;;;;;;;;;3.50;3.25;;;;;18.44;53.89;101916.88;5079664;28;45666;-73
2022/05/21 02:52:47;;;;;;;;;3.50;3.00;;;;;18.59;53.86;101938.72;5070972;27;45628;-73
2022/05/21 02:55:13;;;;;;;;;4.50;3.00;;;;;18.52;54.14;101925.47;5074910;28;46176;-73
2022/05/21 02:57:40;;;;;;;;;4.25;3.75;;;;;18.66;53.67;101949.19;5079898;28;45571;-74
2022/05/21 03:00:12;;;;;;;;;3.50;3.00;;;;;18.61;53.93;101951.22;5079604;27;45449;-74
2022/05/21 03:02:38;;;;;;;;;3.50;2.00;;;;;18.50;53.68;101930.09;5079662;27;45382;-74
2022/05/21 03:05:04;;;;;;;;;4.00;4.00;;;;;18.44;53.82;101915.97;5062026;27;45231;-74
2022/05/21 03:07:30;;;;;;;;;2.75;2.25;;;;;18.49;54.11;101927.47;5064110;28;46903;-73
2022/05/21 03:12:39;;;;;;;;;3.75;3.25;;;;;18.38;53.70;101905.47;5086211;27;45390;-73
2022/05/21 03:15:05;;;;;;;;;2.25;2.25;;;;;18.54;53.59;101935.34;5063761;28;45476;-74
2022/05/21 03:17:31;;;;;;;;;2.50;2.00;;;;;18.63;54.10;101940.34;5065782;27;45241;-73
2022/05/21 03:19:57;;;;;;;;;3.25;3.25;;;;;18.58;54.02;101932.44;5059632;28;45460;-74
2022/05/21 03:22:22;;;;;;;;;4.25;3.00;;;;;18.47;53.70;101908.59;5059104;28;45256;-73
2022/05/21 03:24:48;;;;;;;;;4.75;2.75;;;;;18.54;54.15;101919.13;5060988;28;45359;-73
2022/05/21 03:27:14;;;;;;;;;4.75;2.75;;;;;18.66;53.89;101942.88;5072866;27;45366;-73
2022/05/21 03:29:39;;;;;;;;;2.75;2.00;;;;;18.68;54.13;101944.56;5079372;28;45405;-74
2022/05/21 03:32:07;;;;;;;;;3.75;3.50;;;;;18.71;53.98;101948.97;5095087;27;45591;-73
2022/05/21 03:34:32;;;;;;;;;3.25;2.75;;;;;18.60;53.70;101926.97;5093598;27;45503;-73
2022/05/21 03:36:58;;;;;;;;;3.00;3.00;;;;;18.75;53.79;101953.28;5068949;28;45385;-73
2022/05/21 03:39:23;;;;;;;;;3.25;2.75;;;;;18.60;54.02;101933.25;5079483;27;45358;-74
2022/05/21 03:41:49;;;;;;;;;3.00;3.00;;;;;18.69;53.94;101940.03;5093462;27;45365;-74
2022/05/21 03:44:15;;;;;;;;;3.00;2.00;;;;;18.63;54.27;101911.47;5078093;28;45696;-73
2022/05/21 03:46:40;;;;;;;;;4.00;4.00;;;;;18.80;53.98;101940.41;5076918;27;46510;-73
2022/05/21 03:49:06;;;;;;;;;3.00;2.00;;;;;18.77;53.93;101936.97;5078701;27;45764;-74
2022/05/21 03:51:31;;;;;;;;;5.00;4.00;;;;;18.71;53.91;101932.75;5097971;27;45831;-74
2022/05/21 03:53:57;;;;;;;;;4.00;3.00;;;;;18.64;53.63;101931.28;5082523;27;45407;-74
2022/05/21 03:56:22;;;;;;;;;3.50;2.25;;;;;18.61;53.90;101936.81;5080498;27;46027;-73
2022/05/21 03:58:48;;;;;;;;;4.00;4.00;;;;;18.53;53.75;101915.56;5079365;27;45394;-73
2022/05/21 04:01:13;;;;;;;;;2.00;2.00;;;;;18.63;54.16;101937.66;5076114;27;45382;-73
2022/05/21 04:03:39;;;;;;;;;3.50;3.00;;;;;18.59;54.08;101926.06;5076806;27;45301;-74
2022/05/21 04:06:04;;;;;;;;;4.75;4.00;;;;;18.52;54.28;101928.19;5071451;27;46379;-73
2022/05/21 04:08:30;;;;;;;;;4.25;3.50;;;;;18.51;53.92;101937.25;5074922;27;45305;-73
2022/05/21 04:10:55;;;;;;;;;4.25;3.25;;;;;18.59;54.03;101947.69;5087546;27;45415;-73
2022/05/21 04:13:21;;;;;;;;;2.50;2.50;;;;;18.60;54.01;101959.41;5077260;27;45417;-73
2022/05/21 04:15:46;;;;;;;;;5.00;3.50;;;;;18.27;54.06;101890.59;5070628;28;45483;-73
2022/05/21 04:18:12;;;;;;;;;3.00;3.00;;;;;18.55;54.50;101939.84;5062799;27;45385;-73
2022/05/21 04:20:38;;;;;;;;;4.75;4.00;;;;;18.39;54.56;101921.59;5062129;28;45318;-73
2022/05/21 04:23:04;;;;;;;;;4.75;3.50;;;;;18.55;54.43;101956.91;5064147;28;45222;-73
2022/05/21 04:25:31;;;;;;;;;4.50;3.25;;;;;18.29;54.63;101921.16;5067884;28;45909;-73
2022/05/21 04:27:56;;;;;;;;;3.25;3.25;;;;;18.52;54.97;101968.75;5062419;27;45387;-73
2022/05/21 04:30:28;;;;;;;;;6.75;3.50;;;;;18.48;54.49;101959.03;5061815;28;45378;-73
2022/05/21 04:32:55;;;;;;;;;3.75;3.75;;;;;18.27;54.43;101922.19;5067795;28;45374;-73
2022/05/21 04:35:21;;;;;;;;;5.00;5.00;;;;;18.24;54.38;101908.81;5065631;28;45466;-73
2022/05/21 04:37:47;;;;;;;;;3.00;3.00;;;;;18.25;54.59;101924.94;5077864;27;45637;-73
2022/05/21 04:40:16;;;;;;;;;3.75;3.75;;;;;18.22;54.86;101916.97;5080973;28;45366;-73
2022/05/21 04:42:42;;;;;;;;;4.00;4.00;;;;;18.20;54.62;101912.59;5077619;27;45508;-73
2022/05/21 04:45:08;;;;;;;;;4.00;3.50;;;;;18.41;54.80;101954.88;5074983;28;46171;-73
2022/05/21 04:47:34;;;;;;;;;5.50;4.25;;;;;18.30;54.85;101931.03;5061498;28;45396;-73
2022/05/21 04:50:00;;;;;;;;;4.00;4.00;;;;;18.25;54.81;101921.38;5077266;27;45364;-73
2022/05/21 04:52:25;;;;;;;;;3.00;2.00;;;;;18.22;54.48;101914.28;5061172;28;45450;-73
2022/05/21 04:54:50;;;;;;;;;3.00;3.00;;;;;18.30;54.71;101932.84;5059218;28;47118;-73
2022/05/21 04:57:16;;;;;;;;;4.50;4.25;;;;;18.41;54.97;101953.97;5071410;27;45445;-73
2022/05/21 04:59:41;;;;;;;;;6.25;4.00;;;;;18.39;54.65;101955.88;5075031;28;45406;-73
2022/05/21 05:02:07;;;;;;;;;7.50;5.50;;;;;18.19;54.76;101929.75;5060299;28;45366;-73
2022/05/21 05:04:32;;;;;;;;;4.00;4.00;;;;;18.16;54.96;101911.88;5061232;28;46034;-73
2022/05/21 05:06:58;;;;;;;;;5.00;3.50;;;;;18.40;54.89;101952.22;5074732;28;45322;-73
2022/05/21 05:09:24;;;;;;;;;3.00;3.00;;;;;18.36;54.88;101940.69;5075918;27;45321;-73
2022/05/21 05:11:51;;;;;;;;;4.00;4.00;;;;;18.23;54.53;101921.44;5073561;27;45446;-73
2022/05/21 05:14:18;;;;;;;;;3.50;3.50;;;;;18.36;54.84;101937.97;5061054;28;45280;-73
2022/05/21 05:16:43;;;;;;;;;3.50;3.50;;;;;18.28;55.16;101929.34;5060925;28;45447;-73
2022/05/21 05:19:09;;;;;;;;;6.25;6.00;;;;;18.25;55.03;101926.78;5061398;28;45486;-73
2022/05/21 05:21:35;;;;;;;;;5.00;4.00;;;;;18.39;55.10;101947.75;5072756;28;46168;-73
2022/05/21 05:24:00;;;;;;;;;3.75;3.75;;;;;18.33;54.93;101930.88;5060961;28;46691;-73
2022/05/21 05:26:26;;;;;;;;;4.00;4.00;;;;;18.43;55.09;101942.16;5075210;28;45849;-73
2022/05/21 05:28:51;;;;;;;;;4.50;4.50;;;;;18.22;55.26;101902.59;5070670;28;45307;-73
2022/05/21 05:31:16;;;;;;;;;5.25;4.00;;;;;18.20;55.06;101891.84;5059123;28;45389;-73
2022/05/21 05:33:42;;;;;;;;;4.00;4.00;;;;;18.47;54.89;101948.28;5059467;28;47388;-73
2022/05/21 05:36:08;;;;;;;;;3.25;3.25;;;;;18.37;54.97;101941.56;5060952;28;45345;-74
2022/05/21 05:38:33;;;;;;;;;4.00;4.00;;;;;18.48;55.17;101958.16;5066921;27;45370;-73
2022/05/21 05:40:59;;;;;;;;;5.00;4.00;;;;;18.31;55.05;101918.41;5073367;28;45393;-74
2022/05/21 05:43:24;;;;;;;;;6.75;6.25;;;;;18.39;55.18;101934.25;5067997;28;45432;-74
2022/05/21 05:45:53;;;;;;;;;6.50;4.75;;;;;18.37;55.29;101936.16;5076237;28;45407;-74
2022/05/21 05:48:22;;;;;;;;;4.25;4.00;;;;;18.31;55.03;101929.22;5062139;28;45422;-74
2022/05/21 05:50:47;;;;;;;;;5.00;3.75;;;;;18.43;55.11;101952.97;5060054;28;45702;-74
2022/05/21 05:53:13;;;;;;;;;3.50;3.50;;;;;18.44;55.13;101968.25;5060635;28;46149;-74
2022/05/21 05:55:41;;;;;;;;;4.00;4.00;;;;;18.46;55.50;101963.63;5065573;28;45308;-73
2022/05/21 06:00:52;;;;;;;;;4.25;4.25;;;;;18.42;55.21;101964.72;5072347;28;45333;-73
2022/05/21 06:03:18;;;;;;;;;5.00;5.00;;;;;18.35;55.03;101947.03;5061022;27;46220;-74
2022/05/21 06:05:43;;;;;;;;;9.00;7.00;;;;;18.47;55.18;101959.09;5070306;28;45339;-74
2022/05/21 06:08:09;;;;;;;;;5.75;5.75;;;;;18.36;55.48;101954.19;5063647;28;45629;-74
2022/05/21 06:10:37;;;;;;;;;6.75;6.50;;;;;18.44;55.47;101965.53;5088778;27;45562;-74
2022/05/21 06:13:04;;;;;;;;;5.75;5.50;;;;;18.15;55.44;101916.38;5078754;27;46177;-73
2022/05/21 06:15:30;;;;;;;;;5.00;5.00;;;;;18.45;55.83;101969.13;5066059;28;45370;-74
2022/05/21 06:17:56;;;;;;;;;4.25;4.00;;;;;18.45;55.48;101963.72;5073542;28;45394;-75
2022/05/21 06:20:25;;;;;;;;;7.50;6.00;;;;;18.40;55.54;101963.03;5067301;28;45401;-75
2022/05/21 06:22:50;;;;;;;;;6.50;4.75;;;;;18.38;55.95;101954.13;5059942;28;46677;-74
2022/05/21 06:25:20;;;;;;;;;4.50;3.50;;;;;18.25;55.95;101935.75;5059715;28;45395;-74
2022/05/21 06:27:47;;;;;;;;;4.00;3.25;;;;;18.13;56.05;101914.72;5067043;27;45756;-74
2022/05/21 06:30:14;;;;;;;;;4.00;4.00;;;;;18.30;55.86;101931.03;5061543;28;45484;-75
2022/05/21 06:32:39;;;;;;;;;4.25;4.25;;;;;18.33;56.12;101935.41;5060522;27;46507;-73
2022/05/21 06:35:06;;;;;;;;;4.00;4.00;;;;;18.21;55.96;101917.03;5074604;28;45594;-74
2022/05/21 06:37:31;;;;;;;;;4.75;4.00;;;;;18.31;56.02;101930.09;5067691;27;46101;-74
2022/05/21 06:39:57;;;;;;;;;2.75;2.75;;;;;18.31;55.80;101932.78;5080217;27;45585;-74
2022/05/21 06:42:22;;;;;;;;;5.00;4.00;;;;;18.43;56.08;101946.69;5072947;27;45392;-74
2022/05/21 06:44:48;;;;;;;;;5.00;5.00;;;;;18.47;55.58;101943.75;5068167;27;45488;-74
2022/05/21 06:47:13;;;;;;;;;6.00;4.75;;;;;18.41;55.74;101933.25;5078411;27;45325;-74
2022/05/21 06:49:39;;;;;;;;;4.00;4.00;;;;;18.57;55.69;101960.41;5065665;27;45369;-74
2022/05/21 06:52:04;;;;;;;;;3.25;3.00;;;;;18.54;55.79;101965.09;5069692;27;47215;-74
2022/05/21 06:54:30;;;;;;;;;3.00;2.00;;;;;18.33;55.67;101919.19;5072981;28;45365;-75
2022/05/21 06:56:56;;;;;;;;;2.00;1.00;;;;;18.57;55.14;101960.41;5069100;28;45448;-74
2022/05/21 06:59:22;;;;;;;;;2.00;2.00;;;;;18.58;55.62;101955.91;5077671;28;45520;-74
2022/05/21 07:01:47;;;;;;;;;2.00;2.00;;;;;18.47;55.49;101923.94;5073760;28;46959;-75
2022/05/21 07:04:14;;;;;;;;;3.00;3.00;;;;;18.60;55.09;101935.09;5064794;27;45419;-75
2022/05/21 07:09:25;;;;;;;;;5.00;4.00;;;;;18.75;54.67;101965.94;5060280;28;45350;-74
2022/05/21 07:11:51;;;;;;;;;2.00;2.00;;;;;18.44;54.67;101908.78;5072242;28;46300;-75
2022/05/21 07:14:17;;;;;;;;;4.00;3.50;;;;;18.62;54.66;101931.34;5059881;27;45401;-74
2022/05/21 07:16:43;;;;;;;;;2.50;2.50;;;;;18.63;54.14;101940.34;5058366;28;45413;-74
2022/05/21 07:19:09;;;;;;;;;2.00;2.00;;;;;18.73;54.15;101957.88;5061010;28;45366;-74
2022/05/21 07:21:34;;;;;;;;;2.75;2.00;;;;;18.73;54.12;101944.38;5077532;27;45505;-74
2022/05/21 07:24:00;;;;;;;;;2.00;1.00;;;;;18.88;53.52;101964.44;5073919;28;45373;-74
2022/05/21 07:26:25;;;;;;;;;1.00;1.00;;;;;18.72;52.50;101937.19;5063177;28;45294;-74
2022/05/21 07:28:51;;;;;;;;;3.00;1.00;;;;;18.90;52.93;101964.38;5062223;28;45266;-74
2022/05/21 07:31:17;;;;;;;;;1.00;1.00;;;;;18.94;52.79;101969.53;5060219;28;48052;-75
2022/05/21 07:33:42;;;;;;;;;2.25;2.25;;;;;18.98;53.06;101971.16;5076895;28;45454;-74
2022/05/21 07:36:08;;;;;;;;;1.25;1.00;;;;;18.99;52.96;101964.78;5063684;28;45290;-74
2022/05/21 07:38:34;;;;;;;;;1.25;1.25;;;;;19.03;52.97;101960.97;5076784;27;45527;-74
2022/05/21 07:41:00;;;;;;;;;2.00;2.00;;;;;19.04;52.48;101956.44;5075442;27;45327;-74
2022/05/21 07:43:30;;;;;;;;;1.00;0.75;;;;;19.00;52.08;101944.88;5062613;28;45289;-74
2022/05/21 07:45:57;;;;;;;;;3.50;2.00;;;;;19.07;52.52;101957.16;5062786;28;45440;-74
2022/05/21 07:48:23;;;;;;;;;3.50;3.50;;;;;19.07;52.64;101957.16;5062207;28;46167;-74
2022/05/21 07:50:51;;;;;;;;;2.00;2.00;;;;;19.09;52.54;101959.78;5062131;28;46334;-74
2022/05/21 07:53:24;;;;;;;;;3.00;1.50;;;;;19.11;51.76;101960.63;5068545;28;45458;-75
2022/05/21 07:55:51;;;;;;;;;0.00;0.00;;;;;19.11;52.00;101960.63;5063447;28;45415;-75
2022/05/21 07:58:20;;;;;;;;;0.00;0.00;;;;;19.16;51.83;101961.25;5062372;28;45516;-75
2022/05/21 08:00:46;;;;;;;;;2.00;1.00;;;;;19.18;52.11;101953.06;5062318;27;46142;-75
2022/05/21 08:03:11;;;;;;;;;1.00;1.00;;;;;19.21;51.79;101948.38;5072468;27;45324;-74
2022/05/21 08:05:38;;;;;;;;;2.00;2.00;;;;;19.28;52.09;101953.47;5076271;27;45511;-74
2022/05/21 08:08:04;;;;;;;;;2.00;1.50;;;;;19.34;51.66;101959.44;5068308;28;45389;-74
2022/05/21 08:10:30;;;;;;;;;4.25;1.50;;;;;19.37;51.79;101956.59;5074859;27;45356;-74
2022/05/21 08:12:56;;;;;;;;;2.50;2.50;;;;;19.42;51.60;101959.94;5080631;28;45324;-74
2022/05/21 08:15:22;;;;;;;;;2.25;2.25;;;;;19.48;51.89;101952.47;5082238;27;45420;-75
2022/05/21 08:17:48;;;;;;;;;6.00;3.00;;;;;19.52;51.81;101959.50;5072556;27;45401;-73
2022/05/21 08:20:14;;;;;;;;;3.25;2.75;;;;;19.54;52.36;101941.34;5073299;28;45412;-73
2022/05/21 08:28:09;;;;;;;;;3.00;3.00;;;;;19.65;51.77;101941.66;5080415;28;45328;-73
2022/05/21 08:30:34;;;;;;;;;2.00;2.00;;;;;19.66;52.09;101937.97;5081536;27;45919;-73
2022/05/21 08:33:01;;;;;;;;;2.00;1.75;;;;;19.71;51.56;101932.34;5076685;27;45452;-70
2022/05/21 08:35:26;;;;;;;;;2.50;1.25;;;;;19.74;51.73;101940.31;5071471;28;45508;-74
2022/05/21 08:37:52;;;;;;;;;1.00;1.00;;;;;19.71;51.48;101940.47;5064025;27;45751;-73
2022/05/21 08:40:17;;;;;;;;;2.25;1.00;;;;;19.70;51.01;101931.47;5070541;28;45591;-74
2022/05/21 08:42:56;;;;;;;;;0.50;0.50;;;;;19.75;50.63;101939.41;5073979;28;45475;-74
2022/05/21 08:45:42;;;;;;;;;0.75;0.75;;;;;19.75;49.53;101934.84;5065762;28;45491;-73
2022/05/21 08:48:11;;;;;;;;;1.00;1.00;;;;;19.66;49.44;101908.19;5071109;28;45397;-74
2022/05/21 08:50:41;;;;;;;;;1.75;0.75;;;;;19.85;49.62;101937.94;5068524;27;45244;-74
2022/05/21 08:53:16;;;;;;;;;0.25;0.25;;;;;19.69;50.06;101908.03;5063373;28;45469;-74
2022/05/21 08:55:54;;;;;;;;;1.50;0.75;;;;;19.71;49.56;101908.84;5061593;28;45286;-74
2022/05/21 08:58:29;;;;;;;;;0.75;0.75;;;;;19.87;49.60;101933.31;5075391;28;45420;-74
2022/05/21 09:00:55;;;;;;;;;0.75;0.00;;;;;19.87;49.27;101922.47;5074446;27;45998;-74
2022/05/21 09:03:24;;;;;;;;;0.75;0.50;;;;;19.89;49.11;101916.97;5073892;28;45383;-74
2022/05/21 09:06:05;;;;;;;;;1.00;0.25;;;;;19.75;49.87;101896.91;5075186;27;45414;-74
2022/05/21 09:08:46;;;;;;;;;2.00;1.25;;;;;20.06;49.29;101929.63;5061494;28;45487;-74
2022/05/21 09:11:22;;;;;;;;;1.00;1.00;;;;;20.09;49.14;101929.47;5077554;27;46278;-74
2022/05/21 09:14:01;;;;;;;;;1.00;1.00;;;;;20.08;49.11;101912.34;5067638;28;45461;-74
2022/05/21 09:19:11;;;;;;;;;3.00;2.00;;;;;20.22;49.75;101913.44;5068961;28;45171;-74
2022/05/21 09:21:43;;;;;;;;;2.00;2.00;;;;;20.15;49.49;101894.78;5072508;28;46547;-74
2022/05/21 09:24:08;;;;;;;;;1.00;1.00;;;;;20.14;49.30;101884.00;5080359;27;45751;-74
2022/05/21 09:26:51;;;;;;;;;1.00;1.00;;;;;20.19;49.51;101876.50;5070043;28;46162;-74
2022/05/21 09:29:26;;;;;;;;;1.00;1.00;;;;;20.18;48.93;101867.50;5060947;28;45450;-74
2022/05/21 09:31:54;;;;;;;;;1.25;1.00;;;;;20.43;48.96;101900.50;5069899;28;45848;-74
2022/05/21 09:34:24;;;;;;;;;1.00;1.00;;;;;20.46;49.06;101901.22;5067220;27;45466;-74
2022/05/21 09:36:50;;;;;;;;;3.50;3.00;;;;;20.50;48.93;101899.22;5082833;27;47167;-74
2022/05/21 09:39:41;;;;;;;;;1.00;0.00;;;;;20.41;48.95;101864.47;5076459;27;45511;-74
2022/05/21 09:45:21;;;;;;;;;1.50;1.50;;;;;20.60;48.79;101886.00;5074013;28;46990;-74
2022/05/21 09:45:22;;;;;;;;;1.25;1.25;;;;;20.65;48.77;101900.25;5060224;28;45906;-74
2022/05/21 09:47:50;;;;;;;;;1.50;1.50;;;;;20.48;48.71;101857.72;5071557;28;45283;-74
2022/05/21 09:50:25;;;;;;;;;2.00;1.25;;;;;20.54;48.60;101865.53;5065815;28;46029;-74
2022/05/21 09:52:51;;;;;;;;;1.25;1.25;;;;;20.68;48.20;101871.09;5076471;27;45461;-74
2022/05/21 09:55:22;;;;;;;;;4.00;1.75;;;;;20.63;48.12;101865.06;5078645;27;45697;-74
2022/05/21 09:57:48;;;;;;;;;1.00;1.00;;;;;20.75;48.76;101868.00;5067728;27;45241;-75
2022/05/21 10:00:40;;;;;;;;;4.25;2.75;;;;;20.89;48.18;101879.81;5060241;28;45397;-71
2022/05/21 10:03:09;;;;;;;;;1.00;1.00;;;;;20.72;49.22;101844.66;5062331;28;46082;-75
2022/05/21 10:05:39;;;;;;;;;2.50;2.00;;;;;20.93;48.13;101869.66;5073029;27;45239;-76
2022/05/21 10:11:20;;;;;;;;;1.00;0.75;;;;;20.94;48.51;101863.28;5088325;27;45321;-75
2022/05/21 10:14:00;;;;;;;;;2.25;1.00;;;;;20.78;48.58;101829.84;5064580;27;45465;-77
2022/05/21 10:16:31;;;;;;;;;1.25;1.25;;;;;;;;5076916;27;45343;-78
2022/05/21 10:19:15;;;;;;;;;3.75;2.25;;;;;21.11;48.34;101870.41;5078833;27;45469;-76
2022/05/21 10:22:11;;;;;;;;;4.00;3.00;;;;;21.15;48.62;101871.09;5076276;27;45461;-76
2022/05/21 10:24:55;;;;;;;;;3.25;2.25;;;;;21.18;48.23;101865.50;5058961;28;48671;-76
2022/05/21 10:27:39;;;;;;;;;4.00;1.75;;;;;21.21;47.82;101862.59;5069527;28;45942;-77
2022/05/21 10:30:19;;;;;;;;;3.00;2.00;;;;;21.22;48.11;101864.38;5068381;27;45499;-75
2022/05/21 10:33:03;;;;;;;;;2.00;2.00;;;;;21.25;48.21;101862.34;5072198;27;45904;-74
2022/05/21 10:35:41;;;;;;;;;2.25;2.25;;;;;21.26;48.38;101861.34;5069889;27;45684;-74
2022/05/21 10:38:29;;;;;;;;;2.75;2.75;;;;;21.17;47.52;101837.47;5076044;27;45408;-75
2022/05/21 10:41:08;;;;;;;;;3.00;2.00;;;;;21.10;48.25;101826.13;5073646;28;45475;-75
2022/05/21 10:43:56;;;;;;;;;3.00;3.00;;;;;21.08;48.61;101814.47;5076007;27;45395;-75
2022/05/21 10:46:40;;;;;;;;;1.50;1.50;;;;;21.36;47.71;101850.81;5095303;27;46011;-75
2022/05/21 10:49:18;;;;;;;;;1.75;1.75;;;;;21.41;48.16;101859.56;5079243;27;45377;-75
2022/05/21 10:52:19;;;;;;;;;3.50;2.25;;;;;21.45;47.66;101844.84;5078917;28;45477;-75
2022/05/21 10:55:09;;;;;;;;;1.25;1.25;;;;;21.41;47.89;101837.84;5066803;28;45544;-75
2022/05/21 10:57:53;;;;;;;;;2.25;2.25;;;;;21.55;47.34;101847.00;5069478;28;45451;-75
2022/05/21 11:00:27;;;;;;;;;2.00;2.00;;;;;21.40;47.39;101816.19;5078553;27;45672;-75
2022/05/21 11:03:21;;;;;;;;;1.00;1.00;;;;;21.61;47.29;101835.78;5081350;27;45547;-75
2022/05/21 11:06:03;;;;;;;;;2.00;2.00;;;;;21.62;46.90;101832.09;5081630;28;45548;-75
2022/05/21 11:08:46;;;;;;;;;2.50;1.75;;;;;21.56;47.19;101818.88;5099043;27;48054;-75
2022/05/21 11:11:42;;;;;;;;;3.00;2.00;;;;;21.62;47.07;101821.25;5090469;27;45500;-75
2022/05/21 11:14:19;;;;;;;;;2.75;2.25;;;;;21.67;47.16;101832.69;5079931;28;45345;-75
2022/05/21 11:16:54;;;;;;;;;1.25;1.25;;;;;21.68;47.25;101823.56;5083142;28;45463;-75
2022/05/21 11:19:31;;;;;;;;;2.00;2.00;;;;;21.57;46.64;101794.34;5081300;27;46381;-75
2022/05/21 11:22:07;;;;;;;;;1.50;1.50;;;;;21.58;46.83;101792.50;5066086;27;45322;-75
2022/05/21 11:24:39;;;;;;;;;1.00;1.00;;;;;21.76;46.85;101817.66;5069779;27;45405;-74
2022/05/21 11:27:18;;;;;;;;;3.00;3.00;;;;;21.76;47.01;101815.78;5078460;28;45547;-74
2022/05/21 11:30:01;;;;;;;;;1.50;1.00;;;;;21.83;47.22;101806.31;5074644;28;47293;-75
2022/05/21 11:38:39;;;;;;;;;1.00;1.00;;;;;21.77;46.84;101774.06;5071219;27;45151;-75
2022/05/21 11:47:16;;;;;;;;;3.00;3.00;;;;;21.82;46.31;101752.91;5062483;28;45290;-74
2022/05/21 11:49:48;;;;;;;;;3.00;2.00;;;;;22.09;46.49;101789.31;5060955;28;45362;-75
2022/05/21 11:52:26;;;;;;;;;3.00;2.00;;;;;22.11;46.32;101781.91;5068045;28;46247;-75
2022/05/21 11:54:51;;;;;;;;;2.25;1.50;;;;;22.13;46.01;101779.97;5072694;27;45749;-75
2022/05/21 11:57:40;;;;;;;;;2.25;2.25;;;;;22.16;45.45;101780.63;5095302;27;45524;-74
2022/05/21 12:00:28;;;;;;;;;4.00;2.50;;;;;22.11;45.85;101762.88;5081285;28;45795;-75
2022/05/21 12:02:53;;;;;;;;;2.00;2.00;;;;;22.18;45.36;101772.38;5072896;27;47216;-74
2022/05/21 12:08:21;;;;;;;;;4.50;2.75;;;;;22.27;46.26;101771.78;5082835;27;45428;-75
2022/05/21 12:11:05;;;;;;;;;2.75;1.50;;;;;22.31;45.56;101764.34;5083418;27;45471;-75
2022/05/21 12:13:34;;;;;;;;;16.50;14.75;;;;;22.34;45.65;101770.44;5069563;28;46877;-75
2022/05/21 12:16:02;;;;;;;;;5.25;5.25;;;;;22.38;45.15;101758.38;5081880;28;45404;-75